sensor_id;sensor_type;location;lat;lon;timestamp;P1;durP1;ratioP1;P2;durP2;ratioP2
69627;SDS011;56850;51.984;5.088;2022-08-05T10:39:46;2.30;;;1.10;;
69627;SDS011;56850;51.984;5.088;2022-08-05T10:42:36;2.95;;;0.98;;
69627;SDS011;56850;51.984;5.088;2022-08-05T10:45:09;3.33;;;1.13;;
69627;SDS011;56850;51.984;5.088;2022-08-05T10:47:55;1.95;;;1.02;;
69627;SDS011;56850;51.984;5.088;2022-08-05T10:50:56;2.33;;;1.10;;
69627;SDS011;56850;51.984;5.088;2022-08-05T10:54:12;3.17;;;1.00;;
69627;SDS011;56850;51.984;5.088;2022-08-05T10:56:26;4.30;;;1.45;;
69627;SDS011;56850;51.984;5.088;2022-08-05T11:01:44;5.78;;;2.20;;
69627;SDS011;56850;51.984;5.088;2022-08-05T11:04:30;5.30;;;1.98;;
69627;SDS011;56850;51.984;5.088;2022-08-05T11:07:03;5.57;;;2.00;;
69627;SDS011;56850;51.984;5.088;2022-08-05T11:09:47;3.75;;;1.20;;
69627;SDS011;56850;51.984;5.088;2022-08-05T11:15:25;2.50;;;1.02;;
69627;SDS011;56850;51.984;5.088;2022-08-05T11:20:51;3.30;;;1.17;;
69627;SDS011;56850;51.984;5.088;2022-08-05T11:28:54;2.95;;;0.80;;
69627;SDS011;56850;51.984;5.088;2022-08-05T11:31:25;2.35;;;0.85;;
69627;SDS011;56850;51.984;5.088;2022-08-05T11:34:16;1.77;;;0.83;;
69627;SDS011;56850;51.984;5.088;2022-08-05T11:37:02;2.03;;;0.82;;
69627;SDS011;56850;51.984;5.088;2022-08-05T11:39:49;2.78;;;1.00;;
69627;SDS011;56850;51.984;5.088;2022-08-05T11:42:28;3.45;;;1.17;;
69627;SDS011;56850;51.984;5.088;2022-08-05T11:45:06;1.20;;;1.02;;
69627;SDS011;56850;51.984;5.088;2022-08-05T11:47:53;3.53;;;0.80;;
69627;SDS011;56850;51.984;5.088;2022-08-05T11:50:21;1.48;;;0.80;;
69627;SDS011;56850;51.984;5.088;2022-08-05T11:52:48;3.00;;;1.00;;
69627;SDS011;56850;51.984;5.088;2022-08-05T11:55:22;2.42;;;0.95;;
69627;SDS011;56850;51.984;5.088;2022-08-05T11:57:57;2.72;;;0.95;;
69627;SDS011;56850;51.984;5.088;2022-08-05T12:00:37;2.13;;;1.10;;
69627;SDS011;56850;51.984;5.088;2022-08-05T12:03:14;1.02;;;0.90;;
69627;SDS011;56850;51.984;5.088;2022-08-05T12:06:02;4.05;;;0.98;;
69627;SDS011;56850;51.984;5.088;2022-08-05T12:08:32;3.83;;;0.93;;
69627;SDS011;56850;51.984;5.088;2022-08-05T12:10:59;1.88;;;0.93;;
69627;SDS011;56850;51.984;5.088;2022-08-05T12:13:31;1.07;;;0.87;;
69627;SDS011;56850;51.984;5.088;2022-08-05T12:16:16;5.32;;;1.08;;
69627;SDS011;56850;51.984;5.088;2022-08-05T12:18:44;1.88;;;1.00;;
69627;SDS011;56850;51.984;5.088;2022-08-05T12:21:30;3.90;;;0.90;;
69627;SDS011;56850;51.984;5.088;2022-08-05T12:24:05;2.75;;;0.90;;
69627;SDS011;56850;51.984;5.088;2022-08-05T12:26:36;3.87;;;1.37;;
69627;SDS011;56850;51.984;5.088;2022-08-05T12:29:16;3.55;;;0.88;;
69627;SDS011;56850;51.984;5.088;2022-08-05T12:31:58;2.38;;;1.17;;
69627;SDS011;56850;51.984;5.088;2022-08-05T12:34:29;2.78;;;0.80;;
69627;SDS011;56850;51.984;5.088;2022-08-05T12:37:04;2.60;;;1.00;;
69627;SDS011;56850;51.984;5.088;2022-08-05T12:39:46;2.53;;;0.93;;
69627;SDS011;56850;51.984;5.088;2022-08-05T12:42:17;3.47;;;1.00;;
69627;SDS011;56850;51.984;5.088;2022-08-05T12:44:46;3.47;;;1.02;;
69627;SDS011;56850;51.984;5.088;2022-08-05T12:47:27;1.98;;;0.90;;
69627;SDS011;56850;51.984;5.088;2022-08-05T12:49:56;2.80;;;1.10;;
69627;SDS011;56850;51.984;5.088;2022-08-05T12:52:31;3.97;;;0.90;;
69627;SDS011;56850;51.984;5.088;2022-08-05T12:55:20;3.38;;;1.00;;
69627;SDS011;56850;51.984;5.088;2022-08-05T12:57:52;2.85;;;1.08;;
69627;SDS011;56850;51.984;5.088;2022-08-05T13:00:41;2.80;;;0.98;;
69627;SDS011;56850;51.984;5.088;2022-08-05T13:03:29;2.47;;;0.88;;
69627;SDS011;56850;51.984;5.088;2022-08-05T13:05:59;2.30;;;0.90;;
69627;SDS011;56850;51.984;5.088;2022-08-05T13:08:28;2.05;;;0.80;;
69627;SDS011;56850;51.984;5.088;2022-08-05T13:10:59;2.22;;;1.05;;
69627;SDS011;56850;51.984;5.088;2022-08-05T13:13:27;2.67;;;0.80;;
69627;SDS011;56850;51.984;5.088;2022-08-05T13:16:14;1.50;;;0.60;;
69627;SDS011;56850;51.984;5.088;2022-08-05T13:19:00;2.03;;;0.80;;
69627;SDS011;56850;51.984;5.088;2022-08-05T13:21:27;1.60;;;0.70;;
69627;SDS011;56850;51.984;5.088;2022-08-05T13:24:13;2.15;;;1.00;;
69627;SDS011;56850;51.984;5.088;2022-08-05T13:27:01;2.17;;;0.80;;
69627;SDS011;56850;51.984;5.088;2022-08-05T13:29:29;2.67;;;0.93;;
69627;SDS011;56850;51.984;5.088;2022-08-05T13:32:03;3.03;;;0.80;;
69627;SDS011;56850;51.984;5.088;2022-08-05T13:34:31;1.70;;;0.82;;
69627;SDS011;56850;51.984;5.088;2022-08-05T13:36:58;1.52;;;0.75;;
69627;SDS011;56850;51.984;5.088;2022-08-05T13:39:26;2.58;;;0.70;;
69627;SDS011;56850;51.984;5.088;2022-08-05T13:42:12;1.92;;;0.90;;
69627;SDS011;56850;51.984;5.088;2022-08-05T13:44:43;2.10;;;0.70;;
69627;SDS011;56850;51.984;5.088;2022-08-05T13:47:14;2.22;;;0.80;;
69627;SDS011;56850;51.984;5.088;2022-08-05T13:50:02;3.08;;;1.10;;
69627;SDS011;56850;51.984;5.088;2022-08-05T13:52:36;2.70;;;0.90;;
69627;SDS011;56850;51.984;5.088;2022-08-05T13:55:03;2.85;;;0.80;;
69627;SDS011;56850;51.984;5.088;2022-08-05T13:57:34;1.50;;;0.80;;
69627;SDS011;56850;51.984;5.088;2022-08-05T14:00:17;2.72;;;0.80;;
69627;SDS011;56850;51.984;5.088;2022-08-05T14:02:54;2.10;;;0.80;;
69627;SDS011;56850;51.984;5.088;2022-08-05T14:05:26;2.38;;;0.90;;
69627;SDS011;56850;51.984;5.088;2022-08-05T14:08:14;3.13;;;1.30;;
69627;SDS011;56850;51.984;5.088;2022-08-05T14:10:53;1.37;;;0.80;;
69627;SDS011;56850;51.984;5.088;2022-08-05T14:13:40;2.03;;;0.80;;
69627;SDS011;56850;51.984;5.088;2022-08-05T14:16:07;1.50;;;0.80;;
69627;SDS011;56850;51.984;5.088;2022-08-05T14:18:36;2.22;;;0.85;;
69627;SDS011;56850;51.984;5.088;2022-08-05T14:21:04;1.30;;;0.90;;
69627;SDS011;56850;51.984;5.088;2022-08-05T14:23:51;1.77;;;0.80;;
69627;SDS011;56850;51.984;5.088;2022-08-05T14:26:18;1.60;;;0.70;;
69627;SDS011;56850;51.984;5.088;2022-08-05T14:29:05;2.13;;;0.80;;
69627;SDS011;56850;51.984;5.088;2022-08-05T14:31:42;2.78;;;1.00;;
69627;SDS011;56850;51.984;5.088;2022-08-05T14:34:29;3.38;;;0.90;;
69627;SDS011;56850;51.984;5.088;2022-08-05T14:37:00;2.13;;;0.73;;
69627;SDS011;56850;51.984;5.088;2022-08-05T14:39:29;5.60;;;0.85;;
69627;SDS011;56850;51.984;5.088;2022-08-05T14:42:15;1.48;;;1.00;;
69627;SDS011;56850;51.984;5.088;2022-08-05T14:44:47;2.85;;;0.93;;
69627;SDS011;56850;51.984;5.088;2022-08-05T14:47:14;1.85;;;0.70;;
69627;SDS011;56850;51.984;5.088;2022-08-05T14:49:40;2.87;;;0.93;;
69627;SDS011;56850;51.984;5.088;2022-08-05T14:52:27;3.13;;;0.90;;
69627;SDS011;56850;51.984;5.088;2022-08-05T14:55:13;1.98;;;1.00;;
69627;SDS011;56850;51.984;5.088;2022-08-05T14:57:44;3.05;;;1.00;;
69627;SDS011;56850;51.984;5.088;2022-08-05T15:00:21;4.15;;;1.42;;
69627;SDS011;56850;51.984;5.088;2022-08-05T15:02:54;3.20;;;1.10;;
69627;SDS011;56850;51.984;5.088;2022-08-05T15:05:24;3.45;;;0.88;;
69627;SDS011;56850;51.984;5.088;2022-08-05T15:08:12;3.75;;;1.02;;
69627;SDS011;56850;51.984;5.088;2022-08-05T15:10:59;6.72;;;1.10;;
69627;SDS011;56850;51.984;5.088;2022-08-05T15:13:26;4.85;;;1.15;;
69627;SDS011;56850;51.984;5.088;2022-08-05T15:16:11;3.67;;;1.10;;
69627;SDS011;56850;51.984;5.088;2022-08-05T15:18:38;5.80;;;1.20;;
69627;SDS011;56850;51.984;5.088;2022-08-05T15:21:06;3.85;;;1.00;;
69627;SDS011;56850;51.984;5.088;2022-08-05T15:23:33;3.47;;;1.10;;
69627;SDS011;56850;51.984;5.088;2022-08-05T15:26:03;3.95;;;1.05;;
69627;SDS011;56850;51.984;5.088;2022-08-05T15:28:30;4.83;;;1.17;;
69627;SDS011;56850;51.984;5.088;2022-08-05T15:30:56;2.17;;;1.00;;
69627;SDS011;56850;51.984;5.088;2022-08-05T15:33:23;2.15;;;1.00;;
69627;SDS011;56850;51.984;5.088;2022-08-05T15:36:10;2.85;;;1.05;;
69627;SDS011;56850;51.984;5.088;2022-08-05T15:38:50;5.38;;;1.27;;
69627;SDS011;56850;51.984;5.088;2022-08-05T15:41:38;6.10;;;1.20;;
69627;SDS011;56850;51.984;5.088;2022-08-05T15:44:25;2.63;;;0.90;;
69627;SDS011;56850;51.984;5.088;2022-08-05T15:46:53;6.38;;;1.40;;
69627;SDS011;56850;51.984;5.088;2022-08-05T15:49:21;7.00;;;1.35;;
69627;SDS011;56850;51.984;5.088;2022-08-05T15:52:07;6.13;;;1.35;;
69627;SDS011;56850;51.984;5.088;2022-08-05T15:54:54;5.50;;;2.67;;
69627;SDS011;56850;51.984;5.088;2022-08-05T15:57:21;3.47;;;1.67;;
69627;SDS011;56850;51.984;5.088;2022-08-05T15:59:49;3.97;;;1.48;;
69627;SDS011;56850;51.984;5.088;2022-08-05T16:02:23;6.35;;;3.75;;
69627;SDS011;56850;51.984;5.088;2022-08-05T16:04:50;7.78;;;3.08;;
69627;SDS011;56850;51.984;5.088;2022-08-05T16:07:18;3.07;;;1.07;;
69627;SDS011;56850;51.984;5.088;2022-08-05T16:09:48;4.88;;;1.20;;
69627;SDS011;56850;51.984;5.088;2022-08-05T16:12:15;2.58;;;0.90;;
69627;SDS011;56850;51.984;5.088;2022-08-05T16:14:46;4.05;;;1.20;;
69627;SDS011;56850;51.984;5.088;2022-08-05T16:17:14;1.67;;;1.10;;
69627;SDS011;56850;51.984;5.088;2022-08-05T16:19:41;2.87;;;1.03;;
69627;SDS011;56850;51.984;5.088;2022-08-05T16:22:29;6.03;;;1.40;;
69627;SDS011;56850;51.984;5.088;2022-08-05T16:25:00;2.50;;;1.02;;
69627;SDS011;56850;51.984;5.088;2022-08-05T16:27:35;3.45;;;1.20;;
69627;SDS011;56850;51.984;5.088;2022-08-05T16:30:23;4.03;;;1.70;;
69627;SDS011;56850;51.984;5.088;2022-08-05T16:32:52;4.63;;;1.33;;
69627;SDS011;56850;51.984;5.088;2022-08-05T16:35:19;3.83;;;1.30;;
69627;SDS011;56850;51.984;5.088;2022-08-05T16:37:53;4.43;;;1.42;;
69627;SDS011;56850;51.984;5.088;2022-08-05T16:40:40;4.20;;;1.20;;
69627;SDS011;56850;51.984;5.088;2022-08-05T16:43:16;5.18;;;1.67;;
69627;SDS011;56850;51.984;5.088;2022-08-05T16:45:43;5.37;;;1.20;;
69627;SDS011;56850;51.984;5.088;2022-08-05T16:48:31;2.90;;;1.08;;
69627;SDS011;56850;51.984;5.088;2022-08-05T16:50:59;5.25;;;1.20;;
69627;SDS011;56850;51.984;5.088;2022-08-05T16:53:26;3.50;;;1.10;;
69627;SDS011;56850;51.984;5.088;2022-08-05T16:56:13;2.47;;;1.33;;
69627;SDS011;56850;51.984;5.088;2022-08-05T16:58:39;3.60;;;1.17;;
69627;SDS011;56850;51.984;5.088;2022-08-05T17:01:07;4.95;;;1.35;;
69627;SDS011;56850;51.984;5.088;2022-08-05T17:03:36;3.65;;;1.15;;
69627;SDS011;56850;51.984;5.088;2022-08-05T17:06:04;5.18;;;1.10;;
69627;SDS011;56850;51.984;5.088;2022-08-05T17:08:32;3.90;;;1.38;;
69627;SDS011;56850;51.984;5.088;2022-08-05T17:11:19;6.40;;;1.33;;
69627;SDS011;56850;51.984;5.088;2022-08-05T17:13:49;4.85;;;1.30;;
69627;SDS011;56850;51.984;5.088;2022-08-05T17:16:25;4.13;;;1.40;;
69627;SDS011;56850;51.984;5.088;2022-08-05T17:18:59;6.60;;;1.27;;
69627;SDS011;56850;51.984;5.088;2022-08-05T17:21:26;4.57;;;1.23;;
69627;SDS011;56850;51.984;5.088;2022-08-05T17:24:03;5.70;;;1.27;;
69627;SDS011;56850;51.984;5.088;2022-08-05T17:26:52;3.97;;;1.00;;
69627;SDS011;56850;51.984;5.088;2022-08-05T17:29:20;5.85;;;1.20;;
69627;SDS011;56850;51.984;5.088;2022-08-05T17:32:10;3.70;;;1.00;;
69627;SDS011;56850;51.984;5.088;2022-08-05T17:34:52;4.95;;;1.65;;
69627;SDS011;56850;51.984;5.088;2022-08-05T17:37:18;5.60;;;1.40;;
69627;SDS011;56850;51.984;5.088;2022-08-05T17:40:07;3.22;;;1.00;;
69627;SDS011;56850;51.984;5.088;2022-08-05T17:42:38;5.18;;;1.30;;
69627;SDS011;56850;51.984;5.088;2022-08-05T17:45:11;4.30;;;1.48;;
69627;SDS011;56850;51.984;5.088;2022-08-05T17:47:46;5.63;;;1.40;;
69627;SDS011;56850;51.984;5.088;2022-08-05T17:50:24;5.77;;;1.30;;
69627;SDS011;56850;51.984;5.088;2022-08-05T17:52:56;4.70;;;1.17;;
69627;SDS011;56850;51.984;5.088;2022-08-05T17:55:24;4.95;;;1.40;;
69627;SDS011;56850;51.984;5.088;2022-08-05T17:58:00;5.05;;;1.13;;
69627;SDS011;56850;51.984;5.088;2022-08-05T18:00:27;4.10;;;1.02;;
69627;SDS011;56850;51.984;5.088;2022-08-05T18:02:55;5.23;;;1.00;;
69627;SDS011;56850;51.984;5.088;2022-08-05T18:05:23;3.00;;;1.30;;
69627;SDS011;56850;51.984;5.088;2022-08-05T18:08:00;6.28;;;1.23;;
69627;SDS011;56850;51.984;5.088;2022-08-05T18:10:28;4.88;;;1.33;;
69627;SDS011;56850;51.984;5.088;2022-08-05T18:12:59;7.32;;;1.30;;
69627;SDS011;56850;51.984;5.088;2022-08-05T18:15:32;5.57;;;1.33;;
69627;SDS011;56850;51.984;5.088;2022-08-05T18:18:03;5.65;;;1.25;;
69627;SDS011;56850;51.984;5.088;2022-08-05T18:20:36;6.05;;;1.30;;
69627;SDS011;56850;51.984;5.088;2022-08-05T18:23:03;6.55;;;1.52;;
69627;SDS011;56850;51.984;5.088;2022-08-05T18:25:36;4.93;;;1.60;;
69627;SDS011;56850;51.984;5.088;2022-08-05T18:28:08;3.40;;;1.30;;
69627;SDS011;56850;51.984;5.088;2022-08-05T18:30:35;4.00;;;1.45;;
69627;SDS011;56850;51.984;5.088;2022-08-05T18:33:05;6.30;;;1.60;;
69627;SDS011;56850;51.984;5.088;2022-08-05T18:35:38;5.80;;;1.38;;
69627;SDS011;56850;51.984;5.088;2022-08-05T18:38:26;4.55;;;1.30;;
69627;SDS011;56850;51.984;5.088;2022-08-05T18:40:53;6.47;;;1.17;;
69627;SDS011;56850;51.984;5.088;2022-08-05T18:43:40;3.83;;;1.20;;
69627;SDS011;56850;51.984;5.088;2022-08-05T18:46:13;5.90;;;1.60;;
69627;SDS011;56850;51.984;5.088;2022-08-05T18:48:45;6.95;;;1.30;;
69627;SDS011;56850;51.984;5.088;2022-08-05T18:51:21;2.88;;;1.10;;
69627;SDS011;56850;51.984;5.088;2022-08-05T18:54:28;7.00;;;1.30;;
69627;SDS011;56850;51.984;5.088;2022-08-05T18:56:57;6.78;;;1.40;;
69627;SDS011;56850;51.984;5.088;2022-08-05T18:59:27;6.97;;;1.67;;
69627;SDS011;56850;51.984;5.088;2022-08-05T19:02:14;4.65;;;1.33;;
69627;SDS011;56850;51.984;5.088;2022-08-05T19:04:52;4.05;;;1.15;;
69627;SDS011;56850;51.984;5.088;2022-08-05T19:07:40;5.87;;;1.10;;
69627;SDS011;56850;51.984;5.088;2022-08-05T19:10:11;2.38;;;1.08;;
69627;SDS011;56850;51.984;5.088;2022-08-05T19:12:39;5.93;;;1.40;;
69627;SDS011;56850;51.984;5.088;2022-08-05T19:15:06;6.90;;;1.33;;
69627;SDS011;56850;51.984;5.088;2022-08-05T19:17:56;4.28;;;1.30;;
69627;SDS011;56850;51.984;5.088;2022-08-05T19:20:36;4.40;;;1.33;;
69627;SDS011;56850;51.984;5.088;2022-08-05T19:23:07;6.13;;;1.85;;
69627;SDS011;56850;51.984;5.088;2022-08-05T19:25:53;8.02;;;1.42;;
69627;SDS011;56850;51.984;5.088;2022-08-05T19:28:28;5.28;;;1.40;;
69627;SDS011;56850;51.984;5.088;2022-08-05T19:30:58;8.63;;;1.80;;
69627;SDS011;56850;51.984;5.088;2022-08-05T19:33:26;6.13;;;1.50;;
69627;SDS011;56850;51.984;5.088;2022-08-05T19:36:02;7.75;;;1.55;;
69627;SDS011;56850;51.984;5.088;2022-08-05T19:38:32;5.60;;;1.45;;
69627;SDS011;56850;51.984;5.088;2022-08-05T19:41:01;5.82;;;1.20;;
69627;SDS011;56850;51.984;5.088;2022-08-05T19:43:37;5.03;;;1.40;;
69627;SDS011;56850;51.984;5.088;2022-08-05T19:46:25;6.03;;;1.63;;
69627;SDS011;56850;51.984;5.088;2022-08-05T19:48:59;3.22;;;1.10;;
69627;SDS011;56850;51.984;5.088;2022-08-05T19:51:29;5.68;;;1.52;;
69627;SDS011;56850;51.984;5.088;2022-08-05T19:54:17;7.35;;;2.10;;
69627;SDS011;56850;51.984;5.088;2022-08-05T19:56:54;4.85;;;1.40;;
69627;SDS011;56850;51.984;5.088;2022-08-05T19:59:25;5.63;;;1.30;;
69627;SDS011;56850;51.984;5.088;2022-08-05T20:02:13;3.72;;;1.33;;
69627;SDS011;56850;51.984;5.088;2022-08-05T20:04:42;5.85;;;1.50;;
69627;SDS011;56850;51.984;5.088;2022-08-05T20:07:12;3.30;;;1.30;;
69627;SDS011;56850;51.984;5.088;2022-08-05T20:09:39;7.50;;;1.90;;
69627;SDS011;56850;51.984;5.088;2022-08-05T20:12:20;9.10;;;1.50;;
69627;SDS011;56850;51.984;5.088;2022-08-05T20:14:49;5.32;;;1.42;;
69627;SDS011;56850;51.984;5.088;2022-08-05T20:17:17;6.25;;;1.75;;
69627;SDS011;56850;51.984;5.088;2022-08-05T20:19:49;7.47;;;1.60;;
69627;SDS011;56850;51.984;5.088;2022-08-05T20:22:23;7.00;;;1.67;;
69627;SDS011;56850;51.984;5.088;2022-08-05T20:24:53;4.03;;;1.43;;
69627;SDS011;56850;51.984;5.088;2022-08-05T20:27:21;6.03;;;1.50;;
69627;SDS011;56850;51.984;5.088;2022-08-05T20:29:55;5.90;;;1.30;;
69627;SDS011;56850;51.984;5.088;2022-08-05T20:32:24;2.60;;;1.13;;
69627;SDS011;56850;51.984;5.088;2022-08-05T20:34:53;6.57;;;1.40;;
69627;SDS011;56850;51.984;5.088;2022-08-05T20:37:20;8.93;;;1.27;;
69627;SDS011;56850;51.984;5.088;2022-08-05T20:40:08;6.30;;;1.52;;
69627;SDS011;56850;51.984;5.088;2022-08-05T20:42:36;7.55;;;1.30;;
69627;SDS011;56850;51.984;5.088;2022-08-05T20:45:04;8.55;;;1.50;;
69627;SDS011;56850;51.984;5.088;2022-08-05T20:47:33;5.03;;;1.48;;
69627;SDS011;56850;51.984;5.088;2022-08-05T20:50:06;6.37;;;1.77;;
69627;SDS011;56850;51.984;5.088;2022-08-05T20:52:37;6.60;;;1.30;;
69627;SDS011;56850;51.984;5.088;2022-08-05T20:55:06;5.53;;;1.40;;
69627;SDS011;56850;51.984;5.088;2022-08-05T20:57:55;8.73;;;2.25;;
69627;SDS011;56850;51.984;5.088;2022-08-05T21:00:22;5.95;;;2.00;;
69627;SDS011;56850;51.984;5.088;2022-08-05T21:03:09;7.47;;;2.10;;
69627;SDS011;56850;51.984;5.088;2022-08-05T21:05:42;7.22;;;1.58;;
69627;SDS011;56850;51.984;5.088;2022-08-05T21:08:21;6.00;;;1.52;;
69627;SDS011;56850;51.984;5.088;2022-08-05T21:10:58;8.23;;;1.67;;
69627;SDS011;56850;51.984;5.088;2022-08-05T21:13:26;7.30;;;1.58;;
69627;SDS011;56850;51.984;5.088;2022-08-05T21:16:17;3.93;;;1.43;;
69627;SDS011;56850;51.984;5.088;2022-08-05T21:18:45;5.85;;;1.70;;
69627;SDS011;56850;51.984;5.088;2022-08-05T21:21:13;6.80;;;1.65;;
69627;SDS011;56850;51.984;5.088;2022-08-05T21:23:41;9.77;;;1.58;;
69627;SDS011;56850;51.984;5.088;2022-08-05T21:26:07;6.63;;;1.73;;
69627;SDS011;56850;51.984;5.088;2022-08-05T21:28:40;9.30;;;1.50;;
69627;SDS011;56850;51.984;5.088;2022-08-05T21:31:16;3.70;;;1.50;;
69627;SDS011;56850;51.984;5.088;2022-08-05T21:33:44;7.28;;;1.60;;
69627;SDS011;56850;51.984;5.088;2022-08-05T21:36:13;5.32;;;1.50;;
69627;SDS011;56850;51.984;5.088;2022-08-05T21:38:53;3.95;;;1.30;;
69627;SDS011;56850;51.984;5.088;2022-08-05T21:41:20;4.57;;;1.40;;
69627;SDS011;56850;51.984;5.088;2022-08-05T21:43:48;5.50;;;1.75;;
69627;SDS011;56850;51.984;5.088;2022-08-05T21:46:27;3.90;;;1.48;;
69627;SDS011;56850;51.984;5.088;2022-08-05T21:48:54;8.65;;;1.70;;
69627;SDS011;56850;51.984;5.088;2022-08-05T21:51:25;10.75;;;1.52;;
69627;SDS011;56850;51.984;5.088;2022-08-05T21:54:12;8.20;;;1.80;;
69627;SDS011;56850;51.984;5.088;2022-08-05T21:56:39;9.15;;;1.80;;
69627;SDS011;56850;51.984;5.088;2022-08-05T21:59:16;7.65;;;1.80;;
69627;SDS011;56850;51.984;5.088;2022-08-05T22:01:51;7.03;;;1.60;;
69627;SDS011;56850;51.984;5.088;2022-08-05T22:04:20;5.50;;;1.90;;
69627;SDS011;56850;51.984;5.088;2022-08-05T22:06:51;5.50;;;1.90;;
69627;SDS011;56850;51.984;5.088;2022-08-05T22:09:18;7.35;;;1.70;;
69627;SDS011;56850;51.984;5.088;2022-08-05T22:11:47;4.85;;;1.77;;
69627;SDS011;56850;51.984;5.088;2022-08-05T22:14:15;4.68;;;1.45;;
69627;SDS011;56850;51.984;5.088;2022-08-05T22:17:03;7.85;;;1.92;;
69627;SDS011;56850;51.984;5.088;2022-08-05T22:19:32;5.57;;;1.80;;
69627;SDS011;56850;51.984;5.088;2022-08-05T22:22:20;5.40;;;2.00;;
69627;SDS011;56850;51.984;5.088;2022-08-05T22:24:57;3.55;;;1.90;;
69627;SDS011;56850;51.984;5.088;2022-08-05T22:27:47;6.03;;;2.08;;
69627;SDS011;56850;51.984;5.088;2022-08-05T22:30:36;10.32;;;2.55;;
69627;SDS011;56850;51.984;5.088;2022-08-05T22:33:22;9.13;;;1.70;;
69627;SDS011;56850;51.984;5.088;2022-08-05T22:36:09;8.95;;;2.05;;
69627;SDS011;56850;51.984;5.088;2022-08-05T22:38:40;5.80;;;1.75;;
69627;SDS011;56850;51.984;5.088;2022-08-05T22:41:08;8.85;;;2.22;;
69627;SDS011;56850;51.984;5.088;2022-08-05T22:43:36;5.47;;;2.20;;
69627;SDS011;56850;51.984;5.088;2022-08-05T22:46:04;4.07;;;1.80;;
69627;SDS011;56850;51.984;5.088;2022-08-05T22:48:39;5.30;;;1.70;;
69627;SDS011;56850;51.984;5.088;2022-08-05T22:51:08;6.72;;;1.73;;
69627;SDS011;56850;51.984;5.088;2022-08-05T22:53:40;6.03;;;2.25;;
69627;SDS011;56850;51.984;5.088;2022-08-05T22:56:15;7.65;;;2.30;;
69627;SDS011;56850;51.984;5.088;2022-08-05T22:58:56;4.13;;;1.73;;
69627;SDS011;56850;51.984;5.088;2022-08-05T23:01:25;5.25;;;2.22;;
69627;SDS011;56850;51.984;5.088;2022-08-05T23:04:12;8.38;;;1.80;;
69627;SDS011;56850;51.984;5.088;2022-08-05T23:06:39;8.77;;;1.85;;
69627;SDS011;56850;51.984;5.088;2022-08-05T23:09:07;9.55;;;2.05;;
69627;SDS011;56850;51.984;5.088;2022-08-05T23:11:54;8.80;;;1.97;;
69627;SDS011;56850;51.984;5.088;2022-08-05T23:14:22;7.60;;;1.63;;
69627;SDS011;56850;51.984;5.088;2022-08-05T23:16:58;5.95;;;2.17;;
69627;SDS011;56850;51.984;5.088;2022-08-05T23:19:58;7.53;;;2.60;;
69627;SDS011;56850;51.984;5.088;2022-08-05T23:22:27;3.80;;;2.05;;
69627;SDS011;56850;51.984;5.088;2022-08-05T23:24:56;6.30;;;1.90;;
69627;SDS011;56850;51.984;5.088;2022-08-05T23:27:23;6.30;;;2.10;;
69627;SDS011;56850;51.984;5.088;2022-08-05T23:29:56;7.50;;;2.17;;
69627;SDS011;56850;51.984;5.088;2022-08-05T23:32:24;6.70;;;2.05;;
69627;SDS011;56850;51.984;5.088;2022-08-05T23:34:52;6.60;;;1.98;;
69627;SDS011;56850;51.984;5.088;2022-08-05T23:37:19;7.23;;;2.07;;
69627;SDS011;56850;51.984;5.088;2022-08-05T23:39:47;5.15;;;1.88;;
69627;SDS011;56850;51.984;5.088;2022-08-05T23:42:20;5.07;;;2.10;;
69627;SDS011;56850;51.984;5.088;2022-08-05T23:44:48;10.07;;;2.10;;
69627;SDS011;56850;51.984;5.088;2022-08-05T23:47:19;5.88;;;2.00;;
69627;SDS011;56850;51.984;5.088;2022-08-05T23:49:48;6.60;;;2.20;;
69627;SDS011;56850;51.984;5.088;2022-08-05T23:52:20;10.18;;;2.38;;
69627;SDS011;56850;51.984;5.088;2022-08-05T23:55:07;7.90;;;2.40;;
69627;SDS011;56850;51.984;5.088;2022-08-05T23:57:36;5.88;;;2.17;;
